Time;durP1;ratioP1;P1;durP2;ratioP2;P2;SDS_P1;SDS_P2;PMS_P1;PMS_P2;Temp;Humidity;BMP_temperature;BMP_pressure;BME280_temperature;BME280_humidity;BME280_pressure;Samples;Min_cycle;Max_cycle;Signal;HPM_P1;HPM_P2
2023/01/31 00:00:44;;;;;;;16.80;3.05;;;3.70;99.90;;;;;;4183339;28;20186;-84
2023/01/31 00:02:45;;;;;;;14.23;1.92;;;3.70;99.90;;;;;;4183251;28;20045;-83
2023/01/31 00:04:46;;;;;;;28.27;3.38;;;3.60;99.90;;;;;;4166441;28;20053;-84
2023/01/31 00:06:50;;;;;;;16.30;2.45;;;3.90;99.90;;;;;;4184103;28;20048;-83
2023/01/31 00:08:53;;;;;;;18.98;2.40;;;2.90;99.90;;;;;;4182488;28;20457;-84
2023/01/31 00:10:58;;;;;;;17.55;2.50;;;2.90;99.90;;;;;;4183927;28;20041;-83
2023/01/31 00:12:59;;;;;;;19.25;2.30;;;3.80;99.90;;;;;;4184144;28;20079;-83
2023/01/31 00:15:02;;;;;;;30.95;3.03;;;4.10;99.90;;;;;;4183725;28;20462;-84
2023/01/31 00:17:04;;;;;;;19.05;2.97;;;3.80;99.90;;;;;;4184068;28;20459;-84
2023/01/31 00:19:06;;;;;;;17.50;3.22;;;4.70;99.90;;;;;;4183964;28;20088;-84
2023/01/31 00:21:09;;;;;;;20.13;1.98;;;3.80;99.90;;;;;;4184029;28;20120;-84
2023/01/31 00:23:11;;;;;;;16.42;2.47;;;3.70;99.90;;;;;;4183947;28;20033;-83
2023/01/31 00:25:12;;;;;;;12.43;1.42;;;3.70;99.90;;;;;;4183163;28;20052;-84
2023/01/31 00:27:12;;;;;;;21.85;2.60;;;4.30;99.90;;;;;;4183142;28;20091;-84
2023/01/31 00:29:14;;;;;;;18.52;1.92;;;3.70;99.90;;;;;;4172023;28;20528;-84
2023/01/31 00:31:17;;;;;;;23.85;2.80;;;3.90;99.90;;;;;;4167645;28;20045;-84
2023/01/31 00:33:18;;;;;;;16.95;2.97;;;5.00;99.90;;;;;;4167773;28;20085;-84
2023/01/31 00:35:20;;;;;;;26.65;2.47;;;4.50;99.90;;;;;;4166448;28;20045;-83
2023/01/31 00:37:21;;;;;;;14.68;2.10;;;3.60;99.90;;;;;;4167716;28;20095;-84
2023/01/31 00:39:22;;;;;;;18.15;3.22;;;3.20;99.90;;;;;;4167042;28;20042;-83
2023/01/31 00:41:25;;;;;;;17.73;2.35;;;3.70;99.90;;;;;;4167920;28;20060;-83
2023/01/31 00:43:25;;;;;;;12.23;2.33;;;3.50;99.90;;;;;;4150123;28;20042;-84
2023/01/31 00:45:26;;;;;;;10.20;1.80;;;3.60;99.90;;;;;;4166503;28;20091;-83
2023/01/31 00:47:28;;;;;;;21.27;2.72;;;3.70;99.90;;;;;;4166536;28;20053;-83
2023/01/31 00:49:29;;;;;;;23.85;3.63;;;4.90;99.90;;;;;;4149888;28;20081;-84
2023/01/31 00:51:30;;;;;;;12.65;2.53;;;3.60;99.90;;;;;;4166080;28;20567;-84
2023/01/31 00:53:31;;;;;;;24.63;3.05;;;3.60;99.90;;;;;;4167411;28;20480;-83
2023/01/31 00:55:32;;;;;;;15.23;2.63;;;4.00;99.90;;;;;;4167410;28;20053;-84
2023/01/31 00:57:33;;;;;;;18.88;2.80;;;3.50;99.90;;;;;;4167528;28;20417;-84
2023/01/31 00:59:34;;;;;;;12.70;2.75;;;3.60;99.90;;;;;;4166944;28;20048;-84
2023/01/31 01:01:35;;;;;;;16.20;2.03;;;3.80;99.90;;;;;;4150092;28;20066;-83
2023/01/31 01:03:38;;;;;;;16.27;2.53;;;3.60;99.90;;;;;;4165880;28;20037;-83
2023/01/31 01:05:40;;;;;;;12.18;2.55;;;3.50;99.90;;;;;;4167438;28;20104;-84
2023/01/31 01:07:42;;;;;;;15.50;2.17;;;3.60;99.90;;;;;;4167276;28;20379;-83
2023/01/31 01:09:43;;;;;;;19.65;4.25;;;3.60;99.90;;;;;;4182325;28;20057;-83
2023/01/31 01:11:45;;;;;;;18.98;2.92;;;3.50;99.90;;;;;;4183802;28;20049;-84
2023/01/31 01:13:46;;;;;;;18.33;2.88;;;3.60;99.90;;;;;;4165450;28;20050;-83
2023/01/31 01:15:48;;;;;;;15.27;1.73;;;3.50;99.90;;;;;;4184098;28;20528;-83
2023/01/31 01:17:49;;;;;;;11.65;2.30;;;3.40;99.90;;;;;;4183439;28;20049;-83
2023/01/31 01:19:51;;;;;;;16.33;1.73;;;3.50;99.90;;;;;;4184625;28;20100;-83
2023/01/31 01:21:54;;;;;;;17.85;2.28;;;3.50;99.90;;;;;;4182972;28;20076;-83
2023/01/31 01:23:56;;;;;;;20.90;1.80;;;5.00;99.90;;;;;;4185346;28;20053;-83
2023/01/31 01:25:58;;;;;;;11.63;2.22;;;3.50;99.90;;;;;;4184370;28;20048;-84
2023/01/31 01:27:59;;;;;;;12.40;2.50;;;3.40;99.90;;;;;;4166653;28;20056;-83
2023/01/31 01:30:00;;;;;;;20.13;2.53;;;5.10;99.90;;;;;;4184267;28;20049;-83
2023/01/31 01:32:04;;;;;;;12.55;1.83;;;3.40;99.90;;;;;;4184920;28;20047;-83
2023/01/31 01:34:07;;;;;;;17.80;3.10;;;3.40;99.90;;;;;;4184016;28;20528;-83
2023/01/31 01:36:14;;;;;;;16.65;2.30;;;4.80;99.90;;;;;;4166861;28;20049;-83
2023/01/31 01:38:15;;;;;;;17.60;3.35;;;4.00;99.90;;;;;;4185052;28;20167;-83
2023/01/31 01:40:17;;;;;;;13.52;2.30;;;3.40;99.90;;;;;;4166741;28;20469;-83
2023/01/31 01:42:23;;;;;;;23.60;2.22;;;3.50;99.90;;;;;;4165500;28;20041;-83
2023/01/31 01:44:57;;;;;;;10.98;1.63;;;2.00;99.90;;;;;;4182227;28;20056;-83
2023/01/31 01:46:59;;;;;;;15.77;2.00;;;3.40;99.90;;;;;;4182580;28;20052;-83
2023/01/31 01:49:29;;;;;;;11.18;1.77;;;3.40;99.90;;;;;;4183732;28;20110;-83
2023/01/31 01:51:33;;;;;;;13.30;1.33;;;3.40;99.90;;;;;;4165637;28;20068;-84
2023/01/31 01:53:37;;;;;;;14.40;2.67;;;3.40;99.90;;;;;;4164957;28;20041;-84
2023/01/31 01:55:56;;;;;;;12.98;2.80;;;4.20;99.90;;;;;;4162182;28;20125;-84
2023/01/31 01:58:05;;;;;;;23.75;3.10;;;3.50;99.90;;;;;;4183344;28;20478;-84
2023/01/31 02:00:26;;;;;;;18.85;2.92;;;3.50;99.90;;;;;;4183072;28;20045;-84
2023/01/31 02:02:27;;;;;;;21.98;4.03;;;3.50;99.90;;;;;;4171427;28;20514;-83
2023/01/31 02:04:36;;;;;;;15.27;3.00;;;3.70;99.90;;;;;;4167549;28;20053;-84
2023/01/31 02:06:37;;;;;;;19.95;3.47;;;4.30;99.90;;;;;;4170350;28;20564;-84
2023/01/31 02:08:40;;;;;;;28.45;3.95;;;3.70;99.90;;;;;;4159639;28;20050;-83
2023/01/31 02:10:48;;;;;;;15.68;1.42;;;4.30;99.90;;;;;;4164511;28;20045;-83
2023/01/31 02:12:50;;;;;;;12.05;1.88;;;4.50;99.90;;;;;;4165199;28;20053;-84
2023/01/31 02:14:52;;;;;;;25.35;2.88;;;4.70;99.90;;;;;;4166423;28;20494;-83
2023/01/31 02:16:54;;;;;;;10.65;2.05;;;3.70;99.90;;;;;;4164811;28;20045;-84
2023/01/31 02:18:55;;;;;;;12.07;2.08;;;3.80;99.90;;;;;;4166899;28;20050;-84
2023/01/31 02:21:26;;;;;;;15.43;1.73;;;3.80;99.90;;;;;;4182820;28;20102;-83
2023/01/31 02:23:45;;;;;;;19.70;1.75;;;3.70;99.90;;;;;;4180999;28;20561;-84
2023/01/31 02:26:08;;;;;;;9.95;1.33;;;3.80;99.90;;;;;;4159006;28;20042;-84
2023/01/31 02:28:20;;;;;;;20.20;3.00;;;4.00;99.90;;;;;;4143017;28;20512;-84
2023/01/31 02:30:47;;;;;;;9.30;1.50;;;3.80;99.90;;;;;;4168886;28;20091;-84
2023/01/31 02:33:08;;;;;;;18.15;2.20;;;3.80;99.90;;;;;;4163971;28;20053;-84
2023/01/31 02:35:42;;;;;;;14.50;2.17;;;3.80;99.90;;;;;;4148344;28;20137;-84
2023/01/31 02:38:15;;;;;;;13.02;1.60;;;3.80;99.90;;;;;;4142399;28;20076;-84
2023/01/31 02:40:28;;;;;;;16.70;1.77;;;3.90;99.90;;;;;;4166388;28;20049;-84
2023/01/31 02:42:46;;;;;;;12.07;1.80;;;3.90;99.90;;;;;;4166209;28;20512;-84
2023/01/31 02:44:58;;;;;;;17.23;1.95;;;4.00;99.90;;;;;;4164645;28;20053;-83
2023/01/31 02:47:09;;;;;;;14.48;1.95;;;4.10;99.90;;;;;;4164676;28;20497;-83
2023/01/31 02:49:35;;;;;;;10.75;1.02;;;4.10;99.90;;;;;;4164453;28;20132;-83
2023/01/31 02:52:14;;;;;;;13.95;2.55;;;4.30;99.90;;;;;;4164923;28;20135;-83
2023/01/31 02:54:10;;;;;;;13.70;2.03;;;4.30;99.90;;;;;;4164655;28;20494;-83
2023/01/31 02:56:26;;;;;;;17.00;3.47;;;4.20;99.90;;;;;;4163181;28;20053;-83
2023/01/31 02:58:32;;;;;;;12.60;2.17;;;4.10;99.90;;;;;;4164444;28;20494;-84
2023/01/31 03:00:36;;;;;;;9.15;2.05;;;4.20;99.90;;;;;;4165683;28;20128;-83
2023/01/31 03:02:37;;;;;;;16.35;2.58;;;4.40;99.90;;;;;;4165409;28;20049;-84
2023/01/31 03:04:40;;;;;;;13.75;1.95;;;4.80;99.90;;;;;;4165525;28;20045;-83
2023/01/31 03:06:58;;;;;;;11.80;2.17;;;4.30;99.90;;;;;;4164253;28;20054;-84
2023/01/31 03:09:08;;;;;;;19.52;2.17;;;4.30;99.90;;;;;;4177869;28;20497;-83
2023/01/31 03:11:10;;;;;;;12.57;1.88;;;4.30;99.90;;;;;;4180841;28;20064;-84
2023/01/31 03:13:23;;;;;;;14.20;1.65;;;4.30;99.90;;;;;;4179934;28;20424;-83
2023/01/31 03:17:30;;;;;;;14.80;2.05;;;4.30;99.90;;;;;;4182485;28;20095;-83
2023/01/31 03:18:10;;;;;;;9.88;1.02;;;4.30;99.90;;;;;;4181804;28;20053;-83
2023/01/31 03:20:31;;;;;;;13.82;2.00;;;4.30;99.90;;;;;;4179807;28;20053;-83
2023/01/31 03:23:00;;;;;;;11.80;1.67;;;4.30;99.90;;;;;;4181930;28;20064;-83
2023/01/31 03:25:04;;;;;;;6.95;2.47;;;4.30;99.90;;;;;;4164107;28;20080;-83
2023/01/31 03:27:05;;;;;;;20.30;2.05;;;4.80;99.90;;;;;;4165058;28;20080;-83
2023/01/31 03:29:09;;;;;;;18.42;2.20;;;4.60;99.90;;;;;;4164967;28;20379;-83
2023/01/31 03:31:19;;;;;;;15.90;2.10;;;4.70;99.90;;;;;;4164940;28;20060;-83
2023/01/31 03:33:56;;;;;;;12.73;1.90;;;4.20;99.90;;;;;;4164350;28;20478;-83
2023/01/31 03:36:16;;;;;;;15.15;2.42;;;4.20;99.90;;;;;;4141911;28;20049;-83
2023/01/31 03:38:23;;;;;;;10.73;1.60;;;4.50;99.90;;;;;;4165354;28;20052;-84
2023/01/31 03:40:36;;;;;;;10.60;1.92;;;4.80;99.90;;;;;;4170212;28;20088;-83
2023/01/31 03:42:39;;;;;;;14.82;1.88;;;4.90;99.90;;;;;;4181506;28;20486;-83
2023/01/31 03:44:46;;;;;;;13.25;2.05;;;4.10;99.90;;;;;;4182741;28;20119;-84
2023/01/31 03:46:52;;;;;;;17.90;2.20;;;4.50;99.90;;;;;;4184656;28;20382;-83
2023/01/31 03:48:56;;;;;;;8.32;1.35;;;4.10;99.90;;;;;;4185187;28;20120;-83
2023/01/31 03:50:59;;;;;;;11.63;1.40;;;4.30;99.90;;;;;;4166991;28;20080;-83
2023/01/31 03:53:12;;;;;;;7.35;2.65;;;5.10;99.90;;;;;;4184234;28;20040;-83
2023/01/31 03:55:19;;;;;;;14.57;1.60;;;4.20;99.90;;;;;;4183222;28;20087;-83
2023/01/31 03:57:33;;;;;;;15.38;3.53;;;5.00;99.90;;;;;;4183241;28;20490;-84
2023/01/31 03:59:38;;;;;;;5.97;1.30;;;5.00;99.90;;;;;;4182808;28;20060;-83
2023/01/31 04:01:47;;;;;;;16.15;2.55;;;5.10;99.90;;;;;;4184468;28;20049;-83
2023/01/31 04:03:54;;;;;;;21.13;2.58;;;4.30;99.90;;;;;;4184824;28;20029;-83
2023/01/31 04:05:55;;;;;;;17.73;2.42;;;4.30;99.90;;;;;;4184168;28;20494;-83
2023/01/31 04:08:00;;;;;;;10.55;1.40;;;4.70;99.90;;;;;;4184745;28;20045;-83
2023/01/31 04:10:04;;;;;;;13.30;2.72;;;4.40;99.90;;;;;;4184945;28;20052;-83
2023/01/31 04:12:05;;;;;;;14.23;2.88;;;4.40;99.90;;;;;;4183214;28;20047;-83
2023/01/31 04:14:08;;;;;;;17.23;1.85;;;4.40;99.90;;;;;;4183780;28;20098;-84
2023/01/31 04:16:09;;;;;;;18.15;1.80;;;5.70;99.90;;;;;;4184170;28;20045;-83
2023/01/31 04:18:10;;;;;;;15.02;2.08;;;4.50;99.90;;;;;;4182456;28;20075;-83
2023/01/31 04:20:12;;;;;;;11.60;2.13;;;5.60;99.90;;;;;;4199394;28;20114;-84
2023/01/31 04:22:13;;;;;;;17.35;2.58;;;4.60;99.90;;;;;;4183961;28;20155;-83
2023/01/31 04:24:14;;;;;;;24.63;2.53;;;5.40;99.90;;;;;;4184196;28;20049;-83
2023/01/31 04:26:15;;;;;;;7.90;2.25;;;5.80;99.90;;;;;;4184034;28;20550;-83
2023/01/31 04:28:15;;;;;;;14.48;2.10;;;4.70;99.90;;;;;;4183380;28;20045;-83
2023/01/31 04:30:16;;;;;;;16.75;3.00;;;5.30;99.90;;;;;;4183690;28;20040;-83
2023/01/31 04:32:17;;;;;;;11.68;2.05;;;4.70;99.90;;;;;;4183878;28;20432;-83
2023/01/31 04:34:18;;;;;;;19.88;1.80;;;4.70;99.90;;;;;;4182888;28;20052;-83
2023/01/31 04:36:19;;;;;;;18.65;2.80;;;5.00;99.90;;;;;;4183474;28;20045;-83
2023/01/31 04:38:21;;;;;;;14.63;2.92;;;5.50;99.90;;;;;;4182292;28;20136;-83
2023/01/31 04:40:21;;;;;;;18.83;3.05;;;5.30;99.90;;;;;;4183690;28;20047;-83
2023/01/31 04:42:23;;;;;;;19.10;3.03;;;4.80;99.90;;;;;;4182949;28;20045;-83
2023/01/31 04:44:24;;;;;;;20.00;2.65;;;4.80;99.90;;;;;;4182183;28;20060;-83
2023/01/31 04:46:24;;;;;;;16.02;2.10;;;5.60;99.90;;;;;;4182816;28;20481;-83
2023/01/31 04:48:26;;;;;;;10.75;2.10;;;4.90;99.90;;;;;;4182227;28;20577;-83
2023/01/31 04:50:27;;;;;;;12.35;3.00;;;4.90;99.90;;;;;;4183440;28;20481;-83
2023/01/31 04:52:28;;;;;;;19.63;3.63;;;4.90;99.90;;;;;;4183327;28;20051;-83
2023/01/31 04:54:30;;;;;;;16.50;3.22;;;5.00;99.90;;;;;;4183639;28;20040;-83
2023/01/31 04:56:31;;;;;;;18.65;2.90;;;5.00;99.90;;;;;;4181211;28;20559;-83
2023/01/31 04:58:31;;;;;;;25.35;4.07;;;5.50;99.90;;;;;;4183462;28;20126;-83
2023/01/31 05:00:33;;;;;;;17.17;2.78;;;5.10;99.90;;;;;;4183650;28;20124;-83
2023/01/31 05:02:34;;;;;;;15.80;2.45;;;5.50;99.90;;;;;;4182969;28;20132;-83
2023/01/31 05:04:34;;;;;;;15.60;2.55;;;5.90;99.90;;;;;;4183030;28;20047;-83
2023/01/31 05:06:35;;;;;;;18.33;2.67;;;5.70;99.90;;;;;;4183233;28;20037;-83
2023/01/31 05:08:36;;;;;;;18.25;3.33;;;5.20;99.90;;;;;;4182662;28;20045;-83
2023/01/31 05:10:38;;;;;;;17.83;3.75;;;5.30;99.90;;;;;;4183154;28;20107;-84
2023/01/31 05:12:40;;;;;;;19.67;3.05;;;5.60;99.90;;;;;;4165006;28;20048;-83
2023/01/31 05:14:41;;;;;;;21.38;3.00;;;5.20;99.90;;;;;;4183299;28;20045;-82
2023/01/31 05:16:46;;;;;;;16.95;4.03;;;5.60;99.90;;;;;;4183248;28;20445;-82
2023/01/31 05:18:49;;;;;;;16.38;2.22;;;6.20;99.90;;;;;;4182277;28;20473;-82
2023/01/31 05:20:50;;;;;;;16.65;2.50;;;5.40;99.90;;;;;;4182212;28;20045;-82
2023/01/31 05:22:51;;;;;;;17.63;4.30;;;5.30;99.90;;;;;;4182960;28;20044;-82
2023/01/31 05:24:52;;;;;;;14.98;1.88;;;5.40;99.90;;;;;;4182849;28;20045;-82
2023/01/31 05:26:57;;;;;;;26.48;3.22;;;6.30;99.90;;;;;;4181297;28;20049;-82
2023/01/31 05:29:01;;;;;;;18.10;2.63;;;5.40;99.90;;;;;;4182322;28;20171;-82
2023/01/31 05:31:05;;;;;;;20.40;3.33;;;5.40;99.90;;;;;;4181264;28;20524;-82
2023/01/31 05:33:05;;;;;;;16.95;3.13;;;5.40;99.90;;;;;;4182664;28;20055;-82
2023/01/31 05:35:06;;;;;;;14.43;2.70;;;6.10;99.90;;;;;;4181500;28;20463;-82
2023/01/31 05:37:07;;;;;;;24.58;2.13;;;5.40;99.90;;;;;;4181112;28;20052;-82
2023/01/31 05:39:08;;;;;;;15.35;2.40;;;5.60;99.90;;;;;;4181137;28;20045;-82
2023/01/31 05:41:10;;;;;;;19.88;3.70;;;5.40;99.90;;;;;;4181368;28;20103;-83
2023/01/31 05:43:11;;;;;;;11.68;2.33;;;5.40;99.90;;;;;;4182418;28;20379;-83
2023/01/31 05:45:12;;;;;;;17.05;3.05;;;5.40;99.90;;;;;;4180542;28;20098;-83
2023/01/31 05:47:13;;;;;;;15.75;2.42;;;5.40;99.90;;;;;;4182410;28;20045;-82
2023/01/31 05:49:14;;;;;;;21.23;2.78;;;5.40;99.90;;;;;;4181323;28;20071;-82
2023/01/31 05:51:15;;;;;;;10.57;2.17;;;6.10;99.90;;;;;;4182308;28;20124;-83
2023/01/31 05:53:17;;;;;;;19.60;2.97;;;5.40;99.90;;;;;;4181763;28;20037;-82
2023/01/31 05:55:19;;;;;;;21.50;2.45;;;5.50;99.90;;;;;;4182111;28;20104;-83
2023/01/31 05:57:20;;;;;;;21.83;3.20;;;6.20;99.90;;;;;;4182414;28;20048;-82
2023/01/31 05:59:20;;;;;;;17.33;3.25;;;6.20;99.90;;;;;;4181237;28;20043;-82
2023/01/31 06:01:24;;;;;;;16.63;2.33;;;5.50;99.90;;;;;;4180281;28;20032;-82
2023/01/31 06:03:25;;;;;;;15.13;3.13;;;5.40;99.90;;;;;;4181590;28;20087;-82
2023/01/31 06:05:27;;;;;;;11.65;1.92;;;5.50;99.90;;;;;;4182508;28;20041;-83
2023/01/31 06:07:28;;;;;;;19.98;3.60;;;5.50;99.90;;;;;;4182318;28;20127;-83
2023/01/31 06:09:29;;;;;;;10.73;3.30;;;5.60;99.90;;;;;;4181478;28;20121;-83
2023/01/31 06:11:30;;;;;;;12.13;1.60;;;5.90;99.90;;;;;;4182085;28;20041;-82
2023/01/31 06:13:32;;;;;;;20.05;3.60;;;5.60;99.90;;;;;;4181867;28;20045;-82
2023/01/31 06:15:33;;;;;;;22.80;4.22;;;5.90;99.90;;;;;;4164446;28;20068;-82
2023/01/31 06:17:34;;;;;;;17.23;2.25;;;5.50;99.90;;;;;;4181507;28;20045;-83
2023/01/31 06:19:34;;;;;;;22.40;3.22;;;5.50;99.90;;;;;;4185245;28;20489;-82
2023/01/31 06:21:35;;;;;;;19.90;3.72;;;6.00;99.90;;;;;;4181299;28;20049;-82
2023/01/31 06:23:36;;;;;;;19.30;4.70;;;5.60;99.90;;;;;;4180327;28;20567;-82
2023/01/31 06:25:37;;;;;;;12.90;2.28;;;5.80;99.90;;;;;;4180422;28;20433;-82
2023/01/31 06:27:37;;;;;;;19.15;2.53;;;6.20;99.90;;;;;;4181571;28;20047;-82
2023/01/31 06:29:38;;;;;;;21.30;3.50;;;6.40;99.90;;;;;;4181702;28;20045;-82
2023/01/31 06:31:42;;;;;;;11.32;2.95;;;5.50;99.90;;;;;;4181022;28;20080;-82
2023/01/31 06:33:42;;;;;;;15.63;2.85;;;5.50;99.90;;;;;;4165262;28;20041;-82
2023/01/31 06:35:43;;;;;;;18.63;2.95;;;5.60;99.90;;;;;;4164901;28;20049;-82
2023/01/31 06:37:45;;;;;;;15.25;3.13;;;6.00;99.90;;;;;;4164732;28;20524;-82
2023/01/31 06:39:45;;;;;;;24.42;3.67;;;5.40;99.90;;;;;;4164965;28;20563;-82
2023/01/31 06:41:46;;;;;;;19.52;3.72;;;5.50;99.90;;;;;;4165045;28;20111;-82
2023/01/31 06:43:47;;;;;;;16.05;3.58;;;5.50;99.90;;;;;;4164944;28;20118;-83
2023/01/31 06:45:48;;;;;;;20.92;3.38;;;5.90;99.90;;;;;;4168685;28;20155;-82
2023/01/31 06:47:49;;;;;;;17.77;2.47;;;6.10;99.90;;;;;;4170241;28;20391;-83
2023/01/31 06:49:50;;;;;;;17.10;3.25;;;5.50;99.90;;;;;;4181462;28;20037;-82
2023/01/31 06:51:52;;;;;;;9.55;2.85;;;5.80;99.90;;;;;;4179210;28;20076;-83
2023/01/31 06:53:55;;;;;;;16.52;2.78;;;5.40;99.90;;;;;;4163334;28;20132;-82
2023/01/31 06:55:55;;;;;;;21.98;3.60;;;5.50;99.90;;;;;;4163575;28;20147;-82
2023/01/31 06:57:57;;;;;;;16.25;3.28;;;5.50;99.90;;;;;;4163715;28;20049;-83
2023/01/31 06:59:58;;;;;;;18.33;3.97;;;5.40;99.90;;;;;;4164488;28;20038;-83
2023/01/31 07:01:59;;;;;;;14.35;2.78;;;5.60;99.90;;;;;;4165336;28;20060;-83
2023/01/31 07:04:01;;;;;;;11.07;1.95;;;5.90;99.90;;;;;;4181249;28;20051;-82
2023/01/31 07:06:01;;;;;;;25.90;4.03;;;5.50;99.90;;;;;;4179742;28;20056;-82
2023/01/31 07:08:03;;;;;;;22.52;3.95;;;5.50;99.90;;;;;;4177975;28;20112;-82
2023/01/31 07:10:04;;;;;;;13.00;2.22;;;5.60;99.90;;;;;;4163182;28;20120;-82
2023/01/31 07:12:05;;;;;;;21.10;3.45;;;5.60;99.90;;;;;;4163940;28;20553;-82
2023/01/31 07:14:07;;;;;;;15.30;3.67;;;5.60;99.90;;;;;;4164624;28;20077;-83
2023/01/31 07:16:07;;;;;;;16.13;3.10;;;5.60;99.90;;;;;;4164790;28;20402;-83
2023/01/31 07:18:08;;;;;;;8.70;2.13;;;5.90;99.90;;;;;;4163450;28;20049;-83
2023/01/31 07:20:10;;;;;;;10.73;1.90;;;5.70;99.90;;;;;;4181179;28;20129;-82
2023/01/31 07:22:11;;;;;;;24.35;3.35;;;5.70;99.90;;;;;;4184389;28;20045;-83
2023/01/31 07:24:16;;;;;;;15.80;3.13;;;5.70;99.90;;;;;;4181756;28;20052;-83
2023/01/31 07:26:17;;;;;;;14.73;2.83;;;5.70;99.90;;;;;;4166483;28;20049;-83
2023/01/31 07:28:18;;;;;;;20.50;2.83;;;5.70;99.90;;;;;;4167848;28;20049;-83
2023/01/31 07:30:18;;;;;;;12.98;2.03;;;5.70;99.90;;;;;;4166841;28;20399;-83
2023/01/31 07:32:20;;;;;;;19.75;2.63;;;5.70;99.90;;;;;;4167771;28;20067;-83
2023/01/31 07:34:21;;;;;;;24.23;3.75;;;5.70;99.90;;;;;;4167980;28;20159;-82
2023/01/31 07:36:25;;;;;;;17.40;3.28;;;5.90;99.90;;;;;;4166977;28;20124;-82
2023/01/31 07:38:27;;;;;;;18.25;2.65;;;5.70;99.90;;;;;;4167284;28;20585;-83
2023/01/31 07:40:27;;;;;;;14.82;4.03;;;5.80;99.90;;;;;;4168218;28;20045;-82
2023/01/31 07:42:28;;;;;;;20.27;2.95;;;5.80;99.90;;;;;;4167618;28;20077;-83
2023/01/31 07:44:29;;;;;;;18.63;2.70;;;5.70;99.90;;;;;;4167714;28;20042;-82
2023/01/31 07:46:29;;;;;;;21.52;2.30;;;5.70;99.90;;;;;;4168036;28;20402;-82
2023/01/31 07:48:31;;;;;;;20.00;2.45;;;5.70;99.90;;;;;;4167785;28;20073;-82
2023/01/31 07:50:33;;;;;;;11.85;2.38;;;5.70;99.90;;;;;;4167738;28;20056;-83
2023/01/31 07:52:33;;;;;;;15.77;2.75;;;5.80;99.90;;;;;;4170381;28;20076;-83
2023/01/31 07:54:34;;;;;;;13.20;2.33;;;5.80;99.90;;;;;;4182516;28;20049;-82
2023/01/31 07:56:36;;;;;;;15.18;2.05;;;5.80;99.90;;;;;;4183752;28;20119;-83
2023/01/31 07:58:38;;;;;;;17.75;2.15;;;5.90;99.90;;;;;;4184061;28;20052;-83
2023/01/31 08:05:19;;;;;;;9.30;1.70;;;5.70;99.90;;;;;;4167598;28;20050;-83
2023/01/31 08:07:20;;;;;;;9.60;1.95;;;5.90;99.90;;;;;;4168255;28;20526;-82
2023/01/31 08:09:21;;;;;;;4.72;2.15;;;5.80;99.90;;;;;;4167358;28;20046;-83
2023/01/31 08:11:23;;;;;;;11.98;1.67;;;5.90;99.90;;;;;;4181516;28;20048;-83
2023/01/31 08:13:25;;;;;;;15.25;2.78;;;5.90;99.90;;;;;;4183958;28;20523;-83
2023/01/31 08:15:26;;;;;;;12.07;1.67;;;5.90;99.90;;;;;;4184573;28;20501;-84
2023/01/31 08:17:27;;;;;;;10.13;1.95;;;5.90;99.90;;;;;;4184695;28;20041;-83
2023/01/31 08:19:29;;;;;;;12.18;1.65;;;5.90;99.90;;;;;;4184830;28;20485;-83
2023/01/31 08:21:31;;;;;;;12.05;1.52;;;6.00;99.90;;;;;;4184529;28;20401;-83
2023/01/31 08:23:32;;;;;;;11.05;1.50;;;6.00;99.90;;;;;;4183513;28;20052;-84
2023/01/31 08:25:35;;;;;;;6.72;1.52;;;6.00;99.90;;;;;;4183779;28;20053;-84
2023/01/31 08:27:35;;;;;;;14.40;2.42;;;6.00;99.90;;;;;;4182959;28;20382;-83
2023/01/31 08:29:36;;;;;;;13.05;1.35;;;6.10;99.90;;;;;;4182187;28;20091;-84
2023/01/31 08:31:40;;;;;;;11.85;1.75;;;6.00;99.90;;;;;;4182984;28;20051;-84
2023/01/31 08:33:40;;;;;;;11.95;2.70;;;6.10;99.90;;;;;;4165510;28;20037;-83
2023/01/31 08:35:42;;;;;;;6.60;1.35;;;6.10;99.90;;;;;;4165401;28;20053;-83
2023/01/31 08:37:43;;;;;;;10.75;1.88;;;6.10;99.90;;;;;;4183378;28;20489;-83
2023/01/31 08:39:44;;;;;;;15.25;1.80;;;6.10;99.90;;;;;;4182940;28;20051;-84
2023/01/31 08:41:46;;;;;;;10.85;2.15;;;6.10;99.90;;;;;;4183260;28;20090;-84
2023/01/31 08:43:47;;;;;;;12.38;1.73;;;6.10;99.90;;;;;;4182739;28;20063;-83
2023/01/31 08:45:48;;;;;;;11.93;1.98;;;6.20;99.90;;;;;;4181974;28;20485;-83
2023/01/31 08:47:56;;;;;;;21.15;3.50;;;6.10;99.90;;;;;;4183063;28;20055;-82
2023/01/31 08:49:57;;;;;;;10.32;2.75;;;6.10;99.90;;;;;;4176324;28;20045;-83
2023/01/31 08:51:58;;;;;;;14.18;2.22;;;6.20;99.90;;;;;;4176575;28;20106;-83
2023/01/31 08:53:58;;;;;;;12.10;1.77;;;6.20;99.90;;;;;;4175258;28;20037;-82
2023/01/31 08:56:00;;;;;;;10.00;1.77;;;6.20;99.90;;;;;;4178736;28;20056;-83
2023/01/31 08:58:02;;;;;;;16.45;3.13;;;6.20;99.90;;;;;;4176356;28;20052;-83
2023/01/31 09:00:03;;;;;;;13.23;1.70;;;6.20;99.90;;;;;;4171584;28;20526;-83
2023/01/31 09:02:04;;;;;;;8.20;1.80;;;6.30;99.90;;;;;;4175790;28;20084;-83
2023/01/31 09:04:08;;;;;;;8.35;1.67;;;6.30;99.90;;;;;;4183407;28;20453;-83
2023/01/31 09:06:13;;;;;;;14.32;2.75;;;6.40;99.90;;;;;;4182771;28;20068;-83
2023/01/31 09:08:14;;;;;;;10.82;1.85;;;6.40;99.90;;;;;;4172089;28;20482;-83
2023/01/31 09:10:15;;;;;;;16.50;2.58;;;6.40;99.90;;;;;;4175550;28;20055;-84
2023/01/31 09:12:16;;;;;;;17.58;2.15;;;6.40;99.90;;;;;;4176731;28;20573;-83
2023/01/31 09:14:17;;;;;;;10.05;1.50;;;6.50;99.90;;;;;;4182211;28;20041;-83
2023/01/31 09:16:18;;;;;;;8.77;1.73;;;6.40;99.90;;;;;;4177495;28;20068;-83
2023/01/31 09:18:20;;;;;;;13.77;1.77;;;6.70;99.90;;;;;;4182855;28;20118;-82
2023/01/31 09:20:21;;;;;;;7.32;1.77;;;6.50;99.90;;;;;;4181583;28;20044;-83
2023/01/31 09:22:21;;;;;;;13.27;2.08;;;6.50;99.90;;;;;;4180863;28;20048;-83
2023/01/31 09:24:22;;;;;;;8.45;2.30;;;6.50;99.90;;;;;;4177428;28;20569;-83
2023/01/31 09:26:23;;;;;;;8.75;1.23;;;6.50;99.90;;;;;;4177878;28;20417;-83
2023/01/31 09:28:24;;;;;;;12.57;3.28;;;6.40;99.90;;;;;;4165654;28;20041;-84
2023/01/31 09:30:25;;;;;;;19.33;2.13;;;6.40;99.90;;;;;;4150263;28;20050;-85
2023/01/31 09:32:26;;;;;;;19.05;1.85;;;6.40;99.90;;;;;;4180898;28;20409;-84
2023/01/31 09:34:27;;;;;;;8.40;1.38;;;6.50;99.90;;;;;;4165086;28;20509;-85
2023/01/31 09:36:28;;;;;;;11.95;2.75;;;6.50;99.90;;;;;;4180560;28;20132;-85
2023/01/31 09:38:29;;;;;;;15.63;2.35;;;6.50;99.90;;;;;;4182557;28;20052;-85
2023/01/31 09:40:34;;;;;;;10.82;2.78;;;6.50;99.90;;;;;;4180715;28;20051;-84
2023/01/31 09:42:42;;;;;;;13.00;1.77;;;6.50;99.90;;;;;;4164635;28;20045;-86
2023/01/31 09:44:53;;;;;;;16.38;1.80;;;6.40;99.90;;;;;;4181357;28;20418;-80
2023/01/31 09:47:39;;;;;;;9.98;3.10;;;6.50;99.90;;;;;;4182961;28;20056;-82
2023/01/31 09:49:55;;;;;;;21.15;2.58;;;6.40;99.90;;;;;;4181680;28;20041;-82
2023/01/31 09:52:01;;;;;;;11.50;2.10;;;7.20;99.90;;;;;;4181191;28;20068;-82
2023/01/31 09:54:06;;;;;;;16.92;2.30;;;6.40;99.90;;;;;;4179312;28;20083;-83
2023/01/31 09:56:39;;;;;;;19.08;2.13;;;6.50;99.90;;;;;;4180573;28;20065;-82
2023/01/31 09:59:00;;;;;;;18.60;2.97;;;6.50;99.90;;;;;;4185017;28;20097;-83
2023/01/31 10:01:25;;;;;;;11.82;2.05;;;6.50;99.90;;;;;;4182310;28;20047;-82
2023/01/31 10:03:36;;;;;;;11.43;1.52;;;6.50;99.90;;;;;;4182364;28;20041;-82
2023/01/31 10:05:53;;;;;;;19.60;1.80;;;6.60;99.90;;;;;;4182163;28;20045;-81
2023/01/31 10:08:32;;;;;;;11.48;2.33;;;6.50;99.90;;;;;;4181191;28;20052;-80
2023/01/31 10:10:32;;;;;;;;;;;6.60;99.90;;;;;;4182481;28;20095;-81
2023/01/31 10:12:50;;;;;;;14.85;2.10;;;7.30;99.90;;;;;;4179059;28;20650;-83
2023/01/31 10:15:02;;;;;;;7.05;2.53;;;6.60;99.90;;;;;;4181610;28;20052;-82
2023/01/31 10:17:27;;;;;;;17.30;2.00;;;6.60;99.90;;;;;;4168046;28;20049;-81
2023/01/31 10:19:38;;;;;;;14.75;2.10;;;6.60;99.90;;;;;;4182268;28;20037;-82
2023/01/31 10:21:49;;;;;;;13.98;1.75;;;6.60;99.90;;;;;;4182873;28;20052;-82
2023/01/31 10:23:54;;;;;;;6.30;0.98;;;6.60;99.90;;;;;;4180252;28;20096;-82
2023/01/31 10:26:02;;;;;;;12.75;2.03;;;6.60;99.90;;;;;;4181152;28;20516;-82
2023/01/31 10:28:12;;;;;;;6.22;1.67;;;6.60;99.90;;;;;;4181552;28;20084;-82
2023/01/31 10:30:23;;;;;;;14.98;2.08;;;6.60;99.90;;;;;;4181196;28;20045;-82
2023/01/31 10:32:32;;;;;;;17.50;2.38;;;6.60;99.90;;;;;;4181728;28;20103;-82
2023/01/31 10:34:39;;;;;;;6.15;1.60;;;6.70;99.90;;;;;;4182731;28;20385;-82
2023/01/31 10:36:48;;;;;;;14.27;1.65;;;6.90;99.90;;;;;;4180590;28;20119;-83
2023/01/31 10:39:11;;;;;;;13.82;1.77;;;6.50;99.90;;;;;;4179621;28;20831;-82
2023/01/31 10:41:17;;;;;;;14.52;2.13;;;6.50;99.90;;;;;;4180817;28;20044;-82
2023/01/31 10:43:23;;;;;;;16.05;2.40;;;6.50;99.90;;;;;;4182037;28;20120;-82
2023/01/31 10:45:32;;;;;;;7.25;1.75;;;6.50;99.90;;;;;;4182476;28;20144;-82
2023/01/31 10:47:42;;;;;;;9.93;1.73;;;6.50;99.90;;;;;;4166831;28;20099;-82
2023/01/31 10:49:47;;;;;;;10.40;1.73;;;6.50;99.90;;;;;;4164113;28;20131;-82
2023/01/31 10:52:09;;;;;;;13.52;2.67;;;6.50;99.90;;;;;;4180892;28;20179;-82
2023/01/31 10:54:48;;;;;;;9.60;1.92;;;6.60;99.90;;;;;;4181644;28;20086;-82
2023/01/31 10:56:49;;;;;;;;;;;6.60;99.90;;;;;;4160935;28;20060;-82